LFLB/CMF METAR and TAF weather

Enter ICAO airport designator
Station Type Date Time Source
LFLB METAR 2021/01/16 02:30 UTC NOAA

LFLB 160230Z AUTO 04006KT 360V060 9999 OVC049 02/M03 Q1026 NOSIG


Station Type Date Time Source
LFLB Decoded METAR 2021/01/16 02:30 UTC NOAA

Chambery / Aix-Les-Bains, France (LFLB) 45-39N 005-53E 239M
Jan 15, 2021 - 09:30 PM EST / 2021.01.16 0230 UTC
Wind: from the NE (040 degrees) at 7 MPH (6 KT) (direction variable):0
Visibility: greater than 7 mile(s):0
Sky conditions: overcast
Temperature: 35 F (2 C)
Windchill: 28 F (-2 C):1
Dew Point: 26 F (-3 C)
Relative Humidity: 69%
Pressure (altimeter): 30.30 in. Hg (1026 hPa)
ob: LFLB 160230Z AUTO 04006KT 360V060 9999 OVC049 02/M03 Q1026 NOSIG
cycle: 2

Station Type Date Time Source
LFLB TAF 2021/01/16 03:25 UTC NOAA

TAF LFLB 160200Z 1603/1703 35008KT 9999 OVC035
BECMG 1610/1612 CAVOK
BECMG 1612/1614 VRB03KT
BECMG 1618/1620 OVC035
TEMPO 1620/1701 18006KT 2000 SN OVC006
TEMPO 1701/1703 4000 -RASN SCT005 OVC025

Example: see airport list